Time;durP1;ratioP1;P1;durP2;ratioP2;P2;SDS_P1;SDS_P2;PMS_P1;PMS_P2;Temp;Humidity;BMP_temperature;BMP_pressure;BME280_temperature;BME280_humidity;BME280_pressure;Samples;Min_cycle;Max_cycle;Signal;HPM_P1;HPM_P2
2021/04/11 00:03:38;;;;;;;1.55;0.68;;;17.70;53.10;;;;;;10501600;28;20115;-60
2021/04/11 00:08:39;;;;;;;1.20;0.80;;;17.70;53.00;;;;;;10500992;28;20024;-60
2021/04/11 00:13:40;;;;;;;0.98;0.68;;;17.70;53.00;;;;;;10483023;28;20024;-60
2021/04/11 00:18:41;;;;;;;1.10;0.80;;;17.70;53.00;;;;;;10483225;28;20024;-60
2021/04/11 00:23:42;;;;;;;0.80;0.70;;;17.70;52.90;;;;;;10500664;28;20028;-59
2021/04/11 00:28:43;;;;;;;0.77;0.50;;;17.70;52.90;;;;;;10500229;28;20059;-59
2021/04/11 00:33:44;;;;;;;1.65;1.15;;;17.70;52.90;;;;;;10500292;28;20029;-60
2021/04/11 00:38:45;;;;;;;1.10;0.68;;;17.70;52.80;;;;;;10500006;28;20105;-60
2021/04/11 00:43:46;;;;;;;1.35;0.70;;;17.70;52.80;;;;;;10499889;28;20039;-59
2021/04/11 00:48:48;;;;;;;0.70;0.60;;;17.70;53.40;;;;;;10481624;28;20044;-60
2021/04/11 00:53:49;;;;;;;0.60;0.50;;;17.70;52.70;;;;;;10481963;28;20548;-60
2021/04/11 00:58:50;;;;;;;0.60;0.47;;;17.70;52.70;;;;;;10499008;28;20058;-60
2021/04/11 01:03:52;;;;;;;1.02;0.52;;;17.70;52.70;;;;;;10481278;28;20157;-60
2021/04/11 01:08:55;;;;;;;1.08;0.57;;;17.70;52.60;;;;;;10476001;28;20115;-60
2021/04/11 01:14:01;;;;;;;0.80;0.60;;;17.70;52.60;;;;;;10480674;28;20049;-60
2021/04/11 01:19:08;;;;;;;1.15;0.70;;;17.70;52.50;;;;;;10480792;28;20107;-60
2021/04/11 01:24:24;;;;;;;1.63;0.55;;;17.70;52.50;;;;;;10497681;28;20074;-60
2021/04/11 01:29:25;;;;;;;0.80;0.47;;;17.70;52.40;;;;;;10497360;28;20033;-59
2021/04/11 01:34:27;;;;;;;0.70;0.57;;;17.70;52.40;;;;;;10493511;28;20024;-59
2021/04/11 01:39:35;;;;;;;1.38;0.65;;;17.70;52.40;;;;;;10472805;28;20045;-59
2021/04/11 01:44:42;;;;;;;0.82;0.50;;;17.70;52.30;;;;;;10480343;28;20380;-59
2021/04/11 01:49:45;;;;;;;1.73;0.55;;;17.70;52.70;;;;;;10497334;28;20039;-60
2021/04/11 01:54:48;;;;;;;0.80;0.60;;;17.70;52.30;;;;;;10497033;28;20406;-60
2021/04/11 01:59:50;;;;;;;0.60;0.50;;;17.70;52.30;;;;;;10479342;28;20032;-59
2021/04/11 02:04:51;;;;;;;1.08;0.40;;;17.70;52.20;;;;;;10497177;28;20384;-59
2021/04/11 02:09:53;;;;;;;0.77;0.50;;;17.70;52.20;;;;;;10496902;28;20028;-59
2021/04/11 02:14:54;;;;;;;0.43;0.40;;;17.70;52.10;;;;;;10496608;28;20031;-59
2021/04/11 02:19:55;;;;;;;0.80;0.50;;;17.70;52.10;;;;;;10478988;28;20039;-59
2021/04/11 02:24:58;;;;;;;0.55;0.40;;;17.70;52.10;;;;;;10478820;28;20065;-60
2021/04/11 02:30:05;;;;;;;0.90;0.57;;;17.70;52.10;;;;;;10477835;28;20036;-60
2021/04/11 02:35:12;;;;;;;0.50;0.50;;;17.70;52.00;;;;;;10480514;28;20039;-60
2021/04/11 02:40:27;;;;;;;0.95;0.57;;;17.70;52.10;;;;;;10504887;28;20414;-59
2021/04/11 02:45:33;;;;;;;0.75;0.30;;;17.70;52.10;;;;;;10487756;28;20024;-60
2021/04/11 02:50:39;;;;;;;0.50;0.50;;;17.70;52.00;;;;;;10470036;28;20477;-60
2021/04/11 02:55:42;;;;;;;0.55;0.28;;;17.70;52.00;;;;;;10503762;28;20111;-59
2021/04/11 03:00:49;;;;;;;0.73;0.30;;;17.70;52.00;;;;;;10486207;28;20480;-60
2021/04/11 03:05:54;;;;;;;0.43;0.35;;;17.70;52.00;;;;;;10483000;28;20049;-59
2021/04/11 03:11:18;;;;;;;1.10;0.60;;;17.70;52.00;;;;;;10503633;28;20499;-59
2021/04/11 03:16:20;;;;;;;0.65;0.47;;;17.70;52.00;;;;;;10503411;28;20107;-60
2021/04/11 03:21:22;;;;;;;0.82;0.82;;;17.70;51.90;;;;;;10503219;28;20025;-59
2021/04/11 03:26:35;;;;;;;0.80;0.50;;;17.70;51.80;;;;;;10484643;28;20036;-60
2021/04/11 03:32:07;;;;;;;0.30;0.30;;;17.70;51.80;;;;;;10482314;28;20036;-59
2021/04/11 03:37:11;;;;;;;2.92;0.50;;;17.70;51.80;;;;;;10477182;28;20082;-60
2021/04/11 03:42:17;;;;;;;0.63;0.38;;;17.70;51.80;;;;;;10502359;28;20036;-60
2021/04/11 03:47:31;;;;;;;0.43;0.30;;;17.70;51.80;;;;;;10501485;28;20086;-60
2021/04/11 03:52:43;;;;;;;0.28;0.25;;;17.70;51.80;;;;;;10478865;28;20050;-60
2021/04/11 03:57:54;;;;;;;0.60;0.40;;;17.70;51.80;;;;;;10481121;28;20112;-60
2021/04/11 04:02:58;;;;;;;0.50;0.30;;;17.70;51.80;;;;;;10484486;28;20024;-59
2021/04/11 04:08:00;;;;;;;0.30;0.30;;;17.70;51.90;;;;;;10483963;28;20033;-60
2021/04/11 04:13:44;;;;;;;1.40;0.40;;;17.60;51.90;;;;;;10483949;28;20031;-60
2021/04/11 04:19:21;;;;;;;0.63;0.30;;;17.70;51.80;;;;;;10501018;28;20103;-60
2021/04/11 04:24:57;;;;;;;0.30;0.30;;;17.70;51.80;;;;;;10501018;28;20384;-59
2021/04/11 04:30:22;;;;;;;0.30;0.30;;;17.70;51.80;;;;;;10449582;28;20052;-59
2021/04/11 04:36:17;;;;;;;0.38;0.30;;;17.60;51.80;;;;;;10475695;28;20059;-60
2021/04/11 04:41:37;;;;;;;0.50;0.30;;;17.60;52.40;;;;;;10492516;28;20606;-60
2021/04/11 04:47:04;;;;;;;0.40;0.30;;;17.70;51.80;;;;;;10491669;28;20067;-60
2021/04/11 04:52:17;;;;;;;0.30;0.30;;;17.60;51.80;;;;;;10493913;28;20058;-58
2021/04/11 04:57:52;;;;;;;1.77;0.32;;;17.60;51.80;;;;;;10474281;28;20085;-59
2021/04/11 05:03:24;;;;;;;0.22;0.20;;;17.60;51.80;;;;;;10491307;28;20064;-59
2021/04/11 05:08:42;;;;;;;0.40;0.32;;;17.70;51.90;;;;;;10496076;28;20067;-59
2021/04/11 05:13:55;;;;;;;3.28;0.80;;;17.60;51.80;;;;;;10480230;28;20078;-59
2021/04/11 05:19:10;;;;;;;6.45;0.88;;;17.70;52.50;;;;;;10474785;28;20506;-60
2021/04/11 05:24:17;;;;;;;3.45;0.55;;;17.60;53.60;;;;;;10478715;28;20048;-61
2021/04/11 05:29:48;;;;;;;5.60;0.55;;;17.60;53.30;;;;;;10479177;28;20357;-58
2021/04/11 05:34:50;;;;;;;;;;;17.60;53.90;;;;;;10498661;28;20056;-58
2021/04/11 05:40:07;;;;;;;5.45;0.70;;;17.70;54.40;;;;;;10487599;28;19908;-59
2021/04/11 05:45:50;;;;;;;2.88;0.88;;;17.70;54.20;;;;;;10482138;28;20066;-59
2021/04/11 05:51:07;;;;;;;2.63;0.60;;;17.70;54.10;;;;;;10469728;28;20108;-58
2021/04/11 05:56:23;;;;;;;2.00;0.70;;;17.70;53.70;;;;;;10473625;28;20039;-58
2021/04/11 06:01:34;;;;;;;7.85;1.23;;;17.70;54.20;;;;;;10476839;28;20036;-57
2021/04/11 06:07:00;;;;;;;3.53;0.70;;;17.70;54.40;;;;;;10497464;28;20061;-58
2021/04/11 06:12:05;;;;;;;2.50;0.50;;;17.70;53.80;;;;;;10478745;28;20110;-59
2021/04/11 06:17:11;;;;;;;2.20;0.80;;;17.70;53.70;;;;;;10478909;28;20380;-59
2021/04/11 06:22:36;;;;;;;4.93;0.85;;;17.70;53.60;;;;;;10466953;28;20420;-60
2021/04/11 06:27:43;;;;;;;5.18;1.02;;;17.70;53.70;;;;;;10487446;28;20476;-60
2021/04/11 06:33:06;;;;;;;4.68;0.90;;;17.70;53.60;;;;;;10494653;28;20416;-60
2021/04/11 06:38:10;;;;;;;4.53;0.73;;;17.70;53.50;;;;;;10485131;28;20135;-58
2021/04/11 06:44:04;;;;;;;3.83;0.75;;;17.70;54.70;;;;;;10495975;28;20392;-58
2021/04/11 06:49:35;;;;;;;4.43;0.95;;;17.70;54.40;;;;;;10483693;28;20049;-58
2021/04/11 06:55:09;;;;;;;8.35;0.98;;;17.70;55.30;;;;;;10491164;28;20429;-59
2021/04/11 07:00:29;;;;;;;6.85;0.90;;;17.70;55.60;;;;;;10462929;28;20479;-59
2021/04/11 07:06:28;;;;;;;10.18;1.73;;;17.60;55.60;;;;;;10493953;28;20531;-59
2021/04/11 07:11:50;;;;;;;6.50;0.80;;;17.70;55.80;;;;;;10480923;28;20071;-59
2021/04/11 07:16:59;;;;;;;7.28;0.70;;;17.60;55.90;;;;;;10495479;28;20039;-58
2021/04/11 07:22:24;;;;;;;7.30;1.80;;;17.70;56.40;;;;;;10499090;28;20082;-61
2021/04/11 07:28:00;;;;;;;8.77;1.05;;;17.60;56.20;;;;;;10485065;28;20519;-62
2021/04/11 07:33:35;;;;;;;10.85;1.30;;;17.60;56.70;;;;;;10481247;28;20028;-61
2021/04/11 07:39:41;;;;;;;17.42;1.00;;;17.60;56.50;;;;;;10501981;28;20049;-62
2021/04/11 07:45:07;;;;;;;9.13;0.90;;;17.60;56.40;;;;;;10399956;28;20050;-61
2021/04/11 07:50:20;;;;;;;9.43;2.10;;;17.60;55.70;;;;;;10501948;28;20116;-64
2021/04/11 07:55:51;;;;;;;6.53;1.02;;;17.60;55.70;;;;;;10484130;28;20075;-60
2021/04/11 08:01:25;;;;;;;13.35;1.48;;;17.60;55.70;;;;;;10501955;28;20033;-60
2021/04/11 08:06:57;;;;;;;10.93;1.10;;;17.60;56.00;;;;;;10486472;28;20031;-61
2021/04/11 08:12:32;;;;;;;12.40;1.08;;;17.60;56.20;;;;;;10484618;28;20085;-61
2021/04/11 08:18:07;;;;;;;8.00;1.45;;;17.60;57.20;;;;;;10500403;28;20075;-60
2021/04/11 08:23:25;;;;;;;8.52;1.38;;;17.70;58.20;;;;;;10501262;28;20035;-61
2021/04/11 08:28:53;;;;;;;3.63;1.00;;;17.70;58.80;;;;;;10483306;28;20039;-60
2021/04/11 08:34:22;;;;;;;9.15;1.52;;;17.80;59.00;;;;;;10492493;28;20039;-58
2021/04/11 08:39:30;;;;;;;4.67;0.73;;;17.80;58.80;;;;;;10497548;28;20052;-59
2021/04/11 08:44:52;;;;;;;9.82;1.70;;;17.80;58.50;;;;;;10499504;28;20103;-57
2021/04/11 08:50:06;;;;;;;5.28;1.52;;;17.80;58.90;;;;;;10497565;28;20036;-57
2021/04/11 08:55:34;;;;;;;8.95;1.23;;;17.80;59.40;;;;;;10473910;28;20086;-58
2021/04/11 09:01:10;;;;;;;7.25;1.35;;;17.80;59.20;;;;;;10497161;28;20388;-58
2021/04/11 09:06:42;;;;;;;10.85;2.15;;;17.80;59.30;;;;;;10493040;28;20163;-57
2021/04/11 09:12:20;;;;;;;10.73;1.85;;;17.80;58.60;;;;;;10498566;28;20029;-57
2021/04/11 09:18:12;;;;;;;9.75;1.55;;;17.80;58.40;;;;;;10479488;28;20035;-60
2021/04/11 09:23:47;;;;;;;6.43;1.35;;;17.80;58.50;;;;;;10495769;28;20096;-60
2021/04/11 09:29:20;;;;;;;7.95;1.25;;;17.70;58.10;;;;;;10497221;28;20028;-57
2021/04/11 09:35:00;;;;;;;7.95;1.40;;;17.60;58.00;;;;;;10480967;28;20043;-58
2021/04/11 09:40:19;;;;;;;7.80;0.90;;;17.60;58.00;;;;;;10497965;28;20039;-57
2021/04/11 09:46:06;;;;;;;6.82;1.42;;;17.50;57.80;;;;;;10479726;28;20020;-59
2021/04/11 09:51:40;;;;;;;11.88;1.13;;;17.50;57.60;;;;;;10495761;28;20087;-58
2021/04/11 09:57:32;;;;;;;8.98;1.42;;;17.40;57.40;;;;;;10469981;28;20035;-58
2021/04/11 10:02:48;;;;;;;7.00;1.35;;;17.40;57.30;;;;;;10491866;28;20046;-57
2021/04/11 10:08:27;;;;;;;7.95;1.90;;;17.40;57.40;;;;;;10494373;28;20024;-58
2021/04/11 10:13:49;;;;;;;9.90;2.03;;;17.50;57.00;;;;;;10495783;28;20066;-59
2021/04/11 10:19:09;;;;;;;7.95;1.38;;;17.50;57.80;;;;;;10487377;28;20025;-57
2021/04/11 10:24:45;;;;;;;7.32;1.00;;;17.50;58.00;;;;;;10496897;28;20052;-59
2021/04/11 10:29:48;;;;;;;10.02;1.38;;;17.50;58.20;;;;;;10495190;28;20246;-59
2021/04/11 10:35:13;;;;;;;6.22;1.80;;;17.50;58.50;;;;;;10467169;28;20067;-60
2021/04/11 10:40:35;;;;;;;12.02;1.65;;;17.50;58.60;;;;;;10480181;28;20043;-57
2021/04/11 10:45:52;;;;;;;12.48;1.48;;;17.50;58.00;;;;;;10496565;28;20028;-58
2021/04/11 10:51:48;;;;;;;11.02;1.33;;;17.50;57.80;;;;;;10479088;28;20388;-57
2021/04/11 10:57:18;;;;;;;8.75;1.40;;;17.50;58.10;;;;;;10499208;28;20026;-59
2021/04/11 11:02:37;;;;;;;17.40;2.70;;;17.50;58.30;;;;;;10460300;28;20114;-61
2021/04/11 11:07:49;;;;;;;11.97;1.53;;;17.50;58.10;;;;;;10501903;28;20482;-61
2021/04/11 11:13:23;;;;;;;30.52;3.50;;;17.50;58.20;;;;;;10481864;28;20028;-58
2021/04/11 11:18:51;;;;;;;21.55;1.98;;;17.50;58.20;;;;;;10499223;28;20021;-58
2021/04/11 11:24:45;;;;;;;12.88;2.35;;;17.50;58.90;;;;;;10482112;28;20182;-56
2021/04/11 11:30:13;;;;;;;20.45;2.92;;;17.50;59.20;;;;;;10484997;28;20489;-58
2021/04/11 11:35:15;;;;;;;24.90;3.10;;;17.50;59.00;;;;;;10501741;28;20028;-59
2021/04/11 11:41:29;;;;;;;11.20;2.03;;;17.40;58.90;;;;;;10482254;28;20086;-58
2021/04/11 11:46:47;;;;;;;13.70;2.40;;;17.40;58.90;;;;;;10497848;28;20142;-59
2021/04/11 11:52:00;;;;;;;22.48;2.65;;;17.40;58.30;;;;;;10502017;28;20033;-58
2021/04/11 11:57:10;;;;;;;13.75;2.25;;;17.30;58.10;;;;;;10478098;28;20109;-60
2021/04/11 12:02:26;;;;;;;24.65;3.05;;;17.30;58.50;;;;;;10502048;28;20536;-58
2021/04/11 12:07:46;;;;;;;27.63;3.78;;;17.30;59.40;;;;;;10484129;28;20365;-55
2021/04/11 12:13:02;;;;;;;12.13;2.45;;;17.30;59.70;;;;;;10484658;28;20032;-58
2021/04/11 12:18:21;;;;;;;14.77;2.83;;;17.30;58.80;;;;;;10500617;28;20033;-59
2021/04/11 12:23:38;;;;;;;12.25;2.33;;;17.20;57.80;;;;;;10469239;28;20508;-57
2021/04/11 12:28:41;;;;;;;12.50;2.20;;;17.20;56.90;;;;;;10500220;28;20044;-59
2021/04/11 12:33:57;;;;;;;8.43;1.40;;;17.30;56.40;;;;;;10480878;28;20027;-58
2021/04/11 12:39:28;;;;;;;10.50;1.90;;;17.30;56.20;;;;;;10479596;28;20398;-58
2021/04/11 12:44:40;;;;;;;16.17;2.05;;;17.30;56.10;;;;;;10488063;28;20691;-59
2021/04/11 12:49:49;;;;;;;11.35;2.10;;;17.30;55.80;;;;;;10481648;28;20044;-59
2021/04/11 12:55:21;;;;;;;7.57;1.55;;;17.40;55.60;;;;;;10499735;28;20530;-59
2021/04/11 13:00:44;;;;;;;7.10;1.98;;;17.40;55.70;;;;;;10499465;28;20130;-59
2021/04/11 13:06:10;;;;;;;5.18;1.10;;;17.30;55.40;;;;;;10483195;28;20477;-59
2021/04/11 13:11:33;;;;;;;5.93;1.85;;;17.40;54.80;;;;;;10481408;28;20024;-58
2021/04/11 13:16:45;;;;;;;4.43;1.50;;;17.40;54.90;;;;;;10470495;28;20024;-59
2021/04/11 13:22:24;;;;;;;4.45;1.15;;;17.30;54.80;;;;;;10497799;28;20373;-59
2021/04/11 13:27:59;;;;;;;4.15;1.30;;;17.40;54.90;;;;;;10495240;28;20048;-59
2021/04/11 13:33:31;;;;;;;4.97;0.90;;;17.40;55.60;;;;;;10498044;28;20054;-59
2021/04/11 13:38:39;;;;;;;4.13;1.20;;;17.40;54.80;;;;;;10497746;28;20048;-59
2021/04/11 13:44:15;;;;;;;3.78;1.40;;;17.40;54.10;;;;;;10480250;28;20060;-59
2021/04/11 13:49:32;;;;;;;2.85;0.98;;;17.40;54.60;;;;;;10375218;28;20373;-59
2021/04/11 13:54:36;;;;;;;9.02;1.20;;;17.30;55.20;;;;;;10476044;28;20028;-63
2021/04/11 13:59:58;;;;;;;4.82;1.05;;;17.30;54.60;;;;;;10495360;28;20043;-62
2021/04/11 14:05:09;;;;;;;11.30;1.30;;;17.30;54.40;;;;;;10497269;28;20033;-58
2021/04/11 14:10:18;;;;;;;6.55;1.10;;;17.30;55.10;;;;;;10497103;28;20032;-58
2021/04/11 14:15:28;;;;;;;9.33;1.73;;;17.30;55.20;;;;;;10497170;28;20036;-60
2021/04/11 14:20:58;;;;;;;7.82;1.55;;;17.30;55.10;;;;;;10497143;28;20048;-61
2021/04/11 14:26:17;;;;;;;7.50;1.42;;;17.30;55.20;;;;;;10484896;28;20042;-61
2021/04/11 14:31:39;;;;;;;18.08;1.95;;;17.30;56.20;;;;;;10502084;28;20036;-61
2021/04/11 14:36:53;;;;;;;23.35;1.92;;;17.20;56.70;;;;;;10483555;28;20051;-62
2021/04/11 14:41:57;;;;;;;10.38;2.25;;;17.30;57.10;;;;;;10492132;28;20040;-61
2021/04/11 14:46:59;;;;;;;14.27;2.75;;;17.30;56.70;;;;;;10509985;28;20037;-60
2021/04/11 14:52:37;;;;;;;21.83;2.45;;;17.40;56.60;;;;;;10490626;28;20025;-62
2021/04/11 14:58:02;;;;;;;22.67;2.90;;;17.30;56.60;;;;;;10481785;28;20115;-62
2021/04/11 15:03:29;;;;;;;24.38;3.78;;;17.40;56.70;;;;;;10485678;28;20511;-64
2021/04/11 15:09:04;;;;;;;17.25;2.53;;;17.40;56.90;;;;;;10491580;28;20389;-59
2021/04/11 15:14:22;;;;;;;19.63;3.00;;;17.40;56.80;;;;;;10505733;28;20114;-60
2021/04/11 15:19:41;;;;;;;22.33;3.92;;;17.50;56.90;;;;;;10493444;28;20036;-60
2021/04/11 15:25:25;;;;;;;30.52;3.53;;;17.50;57.20;;;;;;10491781;28;20063;-61
2021/04/11 15:30:36;;;;;;;21.63;4.70;;;17.50;56.90;;;;;;10381055;28;20046;-61
2021/04/11 15:35:48;;;;;;;13.80;2.33;;;17.40;57.00;;;;;;10449486;28;20045;-62
2021/04/11 15:41:26;;;;;;;22.08;2.33;;;17.40;56.90;;;;;;10507554;28;20035;-63
2021/04/11 15:46:45;;;;;;;12.38;2.22;;;17.40;57.10;;;;;;10491594;28;20032;-62
2021/04/11 15:52:18;;;;;;;18.20;2.72;;;17.40;57.20;;;;;;10481985;28;20041;-61
2021/04/11 15:57:26;;;;;;;18.20;3.17;;;17.40;57.50;;;;;;10483077;28;20029;-61
2021/04/11 16:03:01;;;;;;;13.07;1.73;;;17.40;56.70;;;;;;10501238;28;20032;-58
2021/04/11 16:08:09;;;;;;;11.75;1.80;;;17.30;55.50;;;;;;10483687;28;20508;-60
2021/04/11 16:13:18;;;;;;;13.88;2.95;;;17.30;55.70;;;;;;10501427;28;20521;-59
2021/04/11 16:18:52;;;;;;;13.52;3.88;;;17.30;55.90;;;;;;10483190;28;20045;-59
2021/04/11 16:24:19;;;;;;;13.70;2.20;;;17.30;57.70;;;;;;10491191;28;20028;-58
2021/04/11 16:29:31;;;;;;;19.92;2.78;;;17.40;58.60;;;;;;10482073;28;20033;-59
2021/04/11 16:34:39;;;;;;;12.02;2.20;;;17.50;59.50;;;;;;10477696;28;20384;-60
2021/04/11 16:39:53;;;;;;;8.32;2.13;;;17.50;58.10;;;;;;10500666;28;20056;-61
2021/04/11 16:45:08;;;;;;;12.55;2.95;;;17.50;58.20;;;;;;10482687;28;20086;-62
2021/04/11 16:50:23;;;;;;;27.45;3.03;;;17.60;58.00;;;;;;10479076;28;20036;-61
2021/04/11 16:55:41;;;;;;;15.85;2.53;;;17.50;58.10;;;;;;10477742;28;20035;-60
2021/04/11 17:00:52;;;;;;;20.23;1.92;;;17.40;58.50;;;;;;10498713;28;20484;-61
2021/04/11 17:05:57;;;;;;;17.40;2.50;;;17.40;58.60;;;;;;10482554;28;20048;-61
2021/04/11 17:11:22;;;;;;;10.63;2.03;;;17.40;57.00;;;;;;10498584;28;20048;-61
2021/04/11 17:16:38;;;;;;;11.30;2.00;;;17.40;56.80;;;;;;10494122;28;20017;-60
2021/04/11 17:21:47;;;;;;;7.40;1.02;;;17.30;56.20;;;;;;10474167;28;20020;-60
2021/04/11 17:27:07;;;;;;;7.60;1.85;;;17.30;56.40;;;;;;10471597;28;20399;-61
2021/04/11 17:32:31;;;;;;;9.55;1.30;;;17.30;57.00;;;;;;10481457;28;20032;-61
2021/04/11 17:37:44;;;;;;;11.35;2.47;;;17.30;57.40;;;;;;10480979;28;20119;-61
2021/04/11 17:43:15;;;;;;;6.15;1.27;;;17.30;57.50;;;;;;10479945;28;20040;-61
2021/04/11 17:48:51;;;;;;;11.38;1.95;;;17.30;57.90;;;;;;10472521;28;20029;-59
2021/04/11 17:54:38;;;;;;;12.20;1.85;;;17.30;57.70;;;;;;10463151;28;20077;-60
2021/04/11 18:00:07;;;;;;;4.13;1.50;;;17.40;57.60;;;;;;10496071;28;20051;-60
2021/04/11 18:05:25;;;;;;;6.30;1.27;;;17.30;58.00;;;;;;10495432;28;20033;-60
2021/04/11 18:11:02;;;;;;;5.70;1.40;;;17.30;57.40;;;;;;10476386;28;20410;-61
2021/04/11 18:16:15;;;;;;;3.47;0.90;;;17.30;56.80;;;;;;10495973;28;20061;-59
2021/04/11 18:21:30;;;;;;;4.90;1.15;;;17.30;56.50;;;;;;10496220;28;20032;-57
2021/04/11 18:26:38;;;;;;;8.43;1.30;;;17.40;57.00;;;;;;10496200;28;20033;-59
2021/04/11 18:31:41;;;;;;;10.93;1.98;;;17.40;56.80;;;;;;10479708;28;20029;-59
2021/04/11 18:37:21;;;;;;;5.18;0.95;;;17.40;56.50;;;;;;10459287;28;20048;-59
2021/04/11 18:43:01;;;;;;;7.50;1.08;;;17.40;56.50;;;;;;10464283;28;20059;-58
2021/04/11 18:48:24;;;;;;;6.90;1.08;;;17.40;56.80;;;;;;10460630;28;20048;-59
2021/04/11 18:53:59;;;;;;;5.85;1.13;;;17.30;57.30;;;;;;10455949;28;20016;-59
2021/04/11 18:59:41;;;;;;;6.50;1.13;;;17.30;57.10;;;;;;10486848;28;20033;-59
2021/04/11 19:05:38;;;;;;;5.70;1.05;;;17.40;57.10;;;;;;10468381;28;20086;-60
2021/04/11 19:11:02;;;;;;;8.82;1.77;;;17.40;58.20;;;;;;10489402;28;20036;-59
2021/04/11 19:16:05;;;;;;;4.10;0.70;;;17.40;57.20;;;;;;10494798;28;20487;-59
2021/04/11 19:21:14;;;;;;;4.15;1.00;;;17.40;57.10;;;;;;10502061;28;20035;-59
2021/04/11 19:26:49;;;;;;;4.45;1.30;;;17.50;57.20;;;;;;10484065;28;20040;-59
2021/04/11 19:32:44;;;;;;;5.20;0.70;;;17.50;57.10;;;;;;10501840;28;20028;-58
2021/04/11 19:38:27;;;;;;;2.47;0.70;;;17.50;57.20;;;;;;10469188;28;20044;-59
2021/04/11 19:43:51;;;;;;;5.88;1.38;;;17.50;57.20;;;;;;10495606;28;20032;-58
2021/04/11 19:49:07;;;;;;;5.32;0.95;;;17.50;57.10;;;;;;10499709;28;20032;-59
2021/04/11 19:54:25;;;;;;;5.45;1.05;;;17.50;57.00;;;;;;10491967;28;20099;-60
2021/04/11 19:59:38;;;;;;;3.17;0.85;;;17.50;56.70;;;;;;10502050;28;20503;-60
2021/04/11 20:04:53;;;;;;;3.90;1.05;;;17.50;56.60;;;;;;10500745;28;20047;-60
2021/04/11 20:10:14;;;;;;;3.38;1.08;;;17.50;56.40;;;;;;10499317;28;20086;-60
2021/04/11 20:15:52;;;;;;;2.92;0.57;;;17.50;56.30;;;;;;10481527;28;20484;-58
2021/04/11 20:21:30;;;;;;;3.03;0.65;;;17.50;56.10;;;;;;10500686;28;20032;-59
2021/04/11 20:27:02;;;;;;;7.03;0.90;;;17.50;56.00;;;;;;10500418;28;20040;-59
2021/04/11 20:32:31;;;;;;;4.10;0.93;;;17.50;56.00;;;;;;10485319;28;20032;-60
2021/04/11 20:38:04;;;;;;;1.35;0.40;;;17.50;55.80;;;;;;10500200;28;20047;-60
2021/04/11 20:43:24;;;;;;;4.00;0.70;;;17.50;55.60;;;;;;10482887;28;20032;-60
2021/04/11 20:49:22;;;;;;;1.85;0.45;;;17.50;55.70;;;;;;10475365;28;20423;-60
2021/04/11 20:55:00;;;;;;;1.58;0.50;;;17.50;55.50;;;;;;10499937;28;20497;-60
2021/04/11 21:00:09;;;;;;;4.47;1.00;;;17.50;55.50;;;;;;10498051;28;20028;-60
2021/04/11 21:05:30;;;;;;;2.90;0.60;;;17.50;55.30;;;;;;10481383;28;20055;-59
2021/04/11 21:11:18;;;;;;;2.90;0.50;;;17.50;55.30;;;;;;10464159;28;20123;-60
2021/04/11 21:17:08;;;;;;;1.58;0.50;;;17.50;55.20;;;;;;10498797;28;20032;-59
2021/04/11 21:23:02;;;;;;;1.27;0.43;;;17.60;55.10;;;;;;10498421;28;20035;-60
2021/04/11 21:28:36;;;;;;;4.80;0.60;;;17.60;55.00;;;;;;10498431;28;20029;-59
2021/04/11 21:34:19;;;;;;;2.40;1.10;;;17.60;54.90;;;;;;10480933;28;20041;-60
2021/04/11 21:39:54;;;;;;;2.00;0.68;;;17.60;54.80;;;;;;10497080;28;20053;-60
2021/04/11 21:45:05;;;;;;;2.42;0.55;;;17.70;54.70;;;;;;10480342;28;20078;-60
2021/04/11 21:50:36;;;;;;;1.75;0.90;;;17.70;54.60;;;;;;10480369;28;20140;-60
2021/04/11 21:55:42;;;;;;;;;;;17.70;54.50;;;;;;10480219;28;20041;-60
2021/04/11 22:01:05;;;;;;;1.52;0.60;;;17.70;54.40;;;;;;10497176;28;19912;-60
2021/04/11 22:06:36;;;;;;;1.50;0.60;;;17.70;54.50;;;;;;10502049;28;20373;-59
2021/04/11 22:12:02;;;;;;;3.20;0.85;;;17.70;54.40;;;;;;10467881;28;20071;-60
2021/04/11 22:17:20;;;;;;;1.48;0.60;;;17.70;54.30;;;;;;10497114;28;20031;-60
2021/04/11 22:22:37;;;;;;;1.13;0.43;;;17.70;54.30;;;;;;10479376;28;20032;-60
2021/04/11 22:27:52;;;;;;;2.45;0.75;;;17.70;54.10;;;;;;10480325;28;20036;-59
2021/04/11 22:33:19;;;;;;;3.10;0.82;;;17.70;54.10;;;;;;10479231;28;20115;-60
2021/04/11 22:38:41;;;;;;;2.63;0.50;;;17.70;53.90;;;;;;10475481;28;20052;-60
2021/04/11 22:43:57;;;;;;;1.42;0.70;;;17.70;53.90;;;;;;10478708;28;20032;-60
2021/04/11 22:49:16;;;;;;;2.22;0.80;;;17.70;53.80;;;;;;10479086;28;20085;-59
2021/04/11 22:54:54;;;;;;;1.60;0.68;;;17.70;53.70;;;;;;10486920;28;20028;-60
2021/04/11 23:00:32;;;;;;;1.05;0.50;;;17.70;53.70;;;;;;10478002;28;20034;-59
2021/04/11 23:06:15;;;;;;;1.83;0.55;;;17.70;53.60;;;;;;10488438;28;20039;-60
2021/04/11 23:11:26;;;;;;;1.55;0.68;;;17.80;53.60;;;;;;10466125;28;20083;-59
2021/04/11 23:17:11;;;;;;;1.63;0.65;;;17.80;54.20;;;;;;10484638;28;20104;-59
2021/04/11 23:22:38;;;;;;;2.17;0.50;;;17.80;53.50;;;;;;10466498;28;20138;-59
2021/04/11 23:27:59;;;;;;;0.68;0.60;;;17.80;53.40;;;;;;10487788;28;20029;-60
2021/04/11 23:33:19;;;;;;;1.02;0.60;;;17.80;53.40;;;;;;10468729;28;20477;-59
2021/04/11 23:38:40;;;;;;;2.45;0.70;;;17.80;53.30;;;;;;10484753;28;20448;-60
2021/04/11 23:44:08;;;;;;;1.27;0.60;;;17.80;53.30;;;;;;10502486;28;20059;-60
2021/04/11 23:49:34;;;;;;;2.25;0.70;;;17.80;53.40;;;;;;10486269;28;20350;-59
2021/04/11 23:54:56;;;;;;;1.13;0.80;;;17.70;53.30;;;;;;10485202;28;20082;-60
